Terminal Aerodrome Forecast
Issued by NWS

Home | Current Version | Previous Version | Text Only | Print | Product List | Glossary On
Versions: 1 2 3 4 5 6 7 8 9 10 11 12 13 14 15
000
FTUS46 KSEW 220500
TAFHQM
TAF
KHQM 220528Z 2206/2306 24006KT P6SM SCT200
     FM221100 24006KT P6SM SCT030 SCT200
     FM222100 26008KT P6SM BKN120 BKN200=

USA.gov is the U.S. government's official web portal to all federal, state and local government web resources and services.